Gunnison, CO

12:49 AM MST on March 03, 2015 (GMT -0700)
Aspen-Pitkin County / Sardy Field | Change Station
CLOSE
Current Station
Airport
Location: Aspen,
Elevation: 7822 ft
Nearby Weather Stations

Elev 7822 ft 39.23 °N, 106.87 °W | Updated 56 minutes ago

Partly Cloudy
Partly Cloudy
28 °F
Feels Like 24 °F
N
4
Wind Variable Wind from SSE

Today
High -- | Low -- °F
--% Chance of Precip.
Yesterday
High -- | Low -- °F
Precip. -- in
6:37 AM 6:02 PM
Waxing Gibbous, 95% visible
Pressure 29.61 in
Visibility 9.0 miles
Clouds Mostly Cloudy 3800 ft
Overcast 6000 ft
Windchill 24 °F
Dew Point 23 °F
Humidity 81%
Rainfall 0.35 in
Snow Depth Not available.
UV 0 out of 12
Pollen .70 out of 12
Air Quality Not available.
Flu Activity Not available.
METAR KASE 030653Z 15003KT 9SM BKN038 OVC060 M02/M05 A2975 RMK AO2 SNB18E51 SLP025 P0000 T10221050 400781022

More Conditions Fewer Conditions

Pressure 29.61 in
Visibility 9.0 miles
Clouds Mostly Cloudy 3800 ft
Overcast 6000 ft
Windchill 24 °F
Dew Point 23 °F
Humidity 81%
Rainfall 0.35 in
Snow Depth Not available.
UV 0 out of 12
Pollen .70 out of 12
Air Quality Not available.
Flu Activity Not available.
METAR KASE 030653Z 15003KT 9SM BKN038 OVC060 M02/M05 A2975 RMK AO2 SNB18E51 SLP025 P0000 T10221050 400781022

More Conditions Fewer Conditions

10-Day Weather Forecast

Almanac

Astronomy

Mar. 03, 2015 Rise Set
Actual Time
Civil Twilight
Nautical Twilight
Astronomical Twilight
Moon
Length of Visible Light
Length of Day
Tomorrow will be .
, % of the Moon is Illuminated

Today's Extremes

State Highs State Lows

Community

WunderPhotos

Upload Photos

1,802,073 photos uploaded!

WunderBlogs® & News

Nearby

Air Quality

  Air Quality AQ Index Pollutant
Not available.

Snow Depth

Station Depth Elevation

Earthquake Activity

City Distance Mag. Time & Date
Minimum magnitude displayed is 2.5.

Coastal Water Temperatures

Place Temperature

Nearby Weather Stations